sensor_id;sensor_type;location;lat;lon;timestamp;pressure;altitude;pressure_sealevel;temperature;humidity
75039;BME280;63609;49.992;14.512;2023-02-28T00:01:34;99127.53;;;-0.60;52.91
75039;BME280;63609;49.992;14.512;2023-02-28T00:04:01;99123.97;;;-0.35;52.71
75039;BME280;63609;49.992;14.512;2023-02-28T00:06:28;99118.84;;;-0.15;51.69
75039;BME280;63609;49.992;14.512;2023-02-28T00:08:55;99123.78;;;-0.07;52.15
75039;BME280;63609;49.992;14.512;2023-02-28T00:11:22;99121.94;;;-0.27;52.22
75039;BME280;63609;49.992;14.512;2023-02-28T00:13:48;99122.63;;;-0.46;53.42
75039;BME280;63609;49.992;14.512;2023-02-28T00:16:18;99126.22;;;-0.48;53.36
75039;BME280;63609;49.992;14.512;2023-02-28T00:18:46;99114.06;;;-0.27;52.44
75039;BME280;63609;49.992;14.512;2023-02-28T00:21:15;99122.41;;;0.06;52.33
75039;BME280;63609;49.992;14.512;2023-02-28T00:23:43;99120.19;;;-0.05;51.73
75039;BME280;63609;49.992;14.512;2023-02-28T00:26:10;99120.69;;;0.05;52.26
75039;BME280;63609;49.992;14.512;2023-02-28T00:28:42;99111.38;;;-0.26;52.75
75039;BME280;63609;49.992;14.512;2023-02-28T00:31:09;99122.00;;;-0.52;53.69
75039;BME280;63609;49.992;14.512;2023-02-28T00:33:39;99117.88;;;-0.36;53.28
75039;BME280;63609;49.992;14.512;2023-02-28T00:36:09;99124.16;;;-0.40;53.43
75039;BME280;63609;49.992;14.512;2023-02-28T00:38:37;99116.41;;;-0.20;52.96
75039;BME280;63609;49.992;14.512;2023-02-28T00:41:05;99115.97;;;-0.32;53.04
75039;BME280;63609;49.992;14.512;2023-02-28T00:43:34;99125.97;;;-0.19;52.99
75039;BME280;63609;49.992;14.512;2023-02-28T00:46:03;99123.28;;;-0.17;53.05
75039;BME280;63609;49.992;14.512;2023-02-28T00:48:31;99120.97;;;-0.03;52.79
75039;BME280;63609;49.992;14.512;2023-02-28T00:50:58;99116.34;;;-0.18;53.21
75039;BME280;63609;49.992;14.512;2023-02-28T00:53:25;99118.41;;;-0.04;52.88
75039;BME280;63609;49.992;14.512;2023-02-28T00:55:52;99113.03;;;-0.01;52.72
75039;BME280;63609;49.992;14.512;2023-02-28T00:58:19;99115.69;;;0.21;51.76
75039;BME280;63609;49.992;14.512;2023-02-28T01:00:46;99122.91;;;0.15;52.48
75039;BME280;63609;49.992;14.512;2023-02-28T01:03:19;99113.47;;;-0.12;52.59
75039;BME280;63609;49.992;14.512;2023-02-28T01:05:47;99116.34;;;-0.18;52.77
75039;BME280;63609;49.992;14.512;2023-02-28T01:08:15;99107.38;;;-0.13;52.57
75039;BME280;63609;49.992;14.512;2023-02-28T01:10:42;99107.28;;;-0.56;53.36
75039;BME280;63609;49.992;14.512;2023-02-28T01:13:10;99105.50;;;-0.32;53.37
75039;BME280;63609;49.992;14.512;2023-02-28T01:15:39;99105.53;;;-0.34;53.72
75039;BME280;63609;49.992;14.512;2023-02-28T01:18:08;99106.28;;;-0.30;52.73
75039;BME280;63609;49.992;14.512;2023-02-28T01:20:37;99112.38;;;-0.30;53.22
75039;BME280;63609;49.992;14.512;2023-02-28T01:23:04;99107.59;;;-0.65;53.93
75039;BME280;63609;49.992;14.512;2023-02-28T01:25:36;99109.66;;;-0.50;53.91
75039;BME280;63609;49.992;14.512;2023-02-28T01:28:05;99106.56;;;-0.61;53.75
75039;BME280;63609;49.992;14.512;2023-02-28T01:30:33;99105.16;;;-0.47;53.31
75039;BME280;63609;49.992;14.512;2023-02-28T01:33:00;99108.91;;;-0.30;53.26
75039;BME280;63609;49.992;14.512;2023-02-28T01:35:27;99110.13;;;-0.16;52.92
75039;BME280;63609;49.992;14.512;2023-02-28T01:37:54;99102.06;;;-0.11;51.88
75039;BME280;63609;49.992;14.512;2023-02-28T01:40:21;99111.81;;;-0.38;53.33
75039;BME280;63609;49.992;14.512;2023-02-28T01:42:48;99115.25;;;-0.59;54.10
75039;BME280;63609;49.992;14.512;2023-02-28T01:45:31;99108.94;;;-0.08;53.12
75039;BME280;63609;49.992;14.512;2023-02-28T01:48:06;99104.56;;;-0.08;52.17
75039;BME280;63609;49.992;14.512;2023-02-28T01:50:41;99099.38;;;-0.09;52.00
75039;BME280;63609;49.992;14.512;2023-02-28T01:53:13;99099.25;;;-0.06;52.23
75039;BME280;63609;49.992;14.512;2023-02-28T01:55:47;99099.31;;;-0.31;52.86
75039;BME280;63609;49.992;14.512;2023-02-28T01:58:15;99099.22;;;-0.28;52.63
75039;BME280;63609;49.992;14.512;2023-02-28T02:00:42;99094.13;;;-0.09;52.06
75039;BME280;63609;49.992;14.512;2023-02-28T02:03:11;99097.78;;;-0.37;53.31
75039;BME280;63609;49.992;14.512;2023-02-28T02:05:41;99095.28;;;-0.40;53.10
75039;BME280;63609;49.992;14.512;2023-02-28T02:08:09;99093.44;;;-0.15;52.08
75039;BME280;63609;49.992;14.512;2023-02-28T02:10:43;99091.75;;;-0.16;52.31
75039;BME280;63609;49.992;14.512;2023-02-28T02:13:22;99095.53;;;-0.01;52.59
75039;BME280;63609;49.992;14.512;2023-02-28T02:16:08;99091.50;;;-0.33;53.15
75039;BME280;63609;49.992;14.512;2023-02-28T02:29:59;99092.44;;;0.11;51.53
75039;BME280;63609;49.992;14.512;2023-02-28T02:38:23;99085.59;;;0.07;51.92
75039;BME280;63609;49.992;14.512;2023-02-28T02:41:12;99090.94;;;-0.18;52.74
75039;BME280;63609;49.992;14.512;2023-02-28T02:43:50;99088.56;;;-0.70;53.81
75039;BME280;63609;49.992;14.512;2023-02-28T02:47:02;99089.97;;;-0.62;53.10
75039;BME280;63609;49.992;14.512;2023-02-28T02:49:36;99090.44;;;-0.99;53.72
75039;BME280;63609;49.992;14.512;2023-02-28T02:52:07;99086.72;;;-0.92;54.26
75039;BME280;63609;49.992;14.512;2023-02-28T02:54:39;99081.25;;;-1.35;54.73
75039;BME280;63609;49.992;14.512;2023-02-28T02:59:55;99086.03;;;-1.22;54.10
75039;BME280;63609;49.992;14.512;2023-02-28T03:02:28;99088.06;;;-1.05;53.92
75039;BME280;63609;49.992;14.512;2023-02-28T03:05:04;99089.97;;;-0.85;53.23
75039;BME280;63609;49.992;14.512;2023-02-28T03:07:33;99091.47;;;-1.03;53.31
75039;BME280;63609;49.992;14.512;2023-02-28T03:10:00;99084.75;;;-1.10;53.63
75039;BME280;63609;49.992;14.512;2023-02-28T03:12:39;99100.13;;;-0.76;53.25
75039;BME280;63609;49.992;14.512;2023-02-28T03:15:27;99088.75;;;-1.25;53.47
75039;BME280;63609;49.992;14.512;2023-02-28T03:20:35;99097.69;;;-1.06;53.55
75039;BME280;63609;49.992;14.512;2023-02-28T03:23:34;99095.44;;;-1.16;53.74
75039;BME280;63609;49.992;14.512;2023-02-28T03:26:07;99087.63;;;-1.18;52.71
75039;BME280;63609;49.992;14.512;2023-02-28T03:28:56;99096.09;;;-1.36;53.53
75039;BME280;63609;49.992;14.512;2023-02-28T03:34:38;99101.75;;;-1.48;53.63
75039;BME280;63609;49.992;14.512;2023-02-28T03:37:13;99094.44;;;-1.39;52.83
75039;BME280;63609;49.992;14.512;2023-02-28T03:39:46;99092.72;;;-1.13;52.66
75039;BME280;63609;49.992;14.512;2023-02-28T03:42:20;99088.78;;;-1.26;52.54
75039;BME280;63609;49.992;14.512;2023-02-28T03:44:53;99084.72;;;-1.35;53.07
75039;BME280;63609;49.992;14.512;2023-02-28T03:47:37;99079.66;;;-1.40;52.54
75039;BME280;63609;49.992;14.512;2023-02-28T03:50:24;99084.19;;;-1.45;52.96
75039;BME280;63609;49.992;14.512;2023-02-28T03:56:03;99091.88;;;-1.40;52.69
75039;BME280;63609;49.992;14.512;2023-02-28T03:58:39;99075.84;;;-1.31;52.28
75039;BME280;63609;49.992;14.512;2023-02-28T04:01:13;99091.34;;;-1.50;52.81
75039;BME280;63609;49.992;14.512;2023-02-28T04:03:41;99089.22;;;-1.65;52.82
75039;BME280;63609;49.992;14.512;2023-02-28T04:06:15;99091.41;;;-1.26;51.70
75039;BME280;63609;49.992;14.512;2023-02-28T04:08:43;99090.69;;;-1.56;52.30
75039;BME280;63609;49.992;14.512;2023-02-28T04:13:49;99096.31;;;-1.69;52.48
75039;BME280;63609;49.992;14.512;2023-02-28T04:16:16;99092.19;;;-1.49;52.68
75039;BME280;63609;49.992;14.512;2023-02-28T04:19:04;99092.66;;;-1.89;52.96
75039;BME280;63609;49.992;14.512;2023-02-28T04:21:36;99089.53;;;-1.74;52.43
75039;BME280;63609;49.992;14.512;2023-02-28T04:24:04;99098.34;;;-1.50;51.90
75039;BME280;63609;49.992;14.512;2023-02-28T04:26:34;99103.84;;;-1.59;52.52
75039;BME280;63609;49.992;14.512;2023-02-28T04:29:03;99099.19;;;-1.76;52.51
75039;BME280;63609;49.992;14.512;2023-02-28T04:31:31;99097.19;;;-1.96;53.33
75039;BME280;63609;49.992;14.512;2023-02-28T04:33:59;99103.38;;;-1.71;52.50
75039;BME280;63609;49.992;14.512;2023-02-28T04:36:27;99101.47;;;-1.93;53.36
75039;BME280;63609;49.992;14.512;2023-02-28T04:38:55;99096.72;;;-1.81;52.35
75039;BME280;63609;49.992;14.512;2023-02-28T04:41:23;99099.47;;;-1.59;52.52
75039;BME280;63609;49.992;14.512;2023-02-28T04:43:53;99098.44;;;-1.53;52.02
75039;BME280;63609;49.992;14.512;2023-02-28T04:46:23;99102.00;;;-1.82;52.29
75039;BME280;63609;49.992;14.512;2023-02-28T04:48:50;99098.72;;;-1.89;53.21
75039;BME280;63609;49.992;14.512;2023-02-28T04:51:18;99102.25;;;-1.90;53.55
75039;BME280;63609;49.992;14.512;2023-02-28T04:53:47;99108.81;;;-2.05;52.88
75039;BME280;63609;49.992;14.512;2023-02-28T04:56:16;99108.59;;;-2.26;54.00
75039;BME280;63609;49.992;14.512;2023-02-28T04:58:43;99115.22;;;-2.15;53.67
75039;BME280;63609;49.992;14.512;2023-02-28T05:01:31;99119.81;;;-2.23;53.70
75039;BME280;63609;49.992;14.512;2023-02-28T05:04:01;99119.13;;;-2.29;54.10
75039;BME280;63609;49.992;14.512;2023-02-28T05:06:31;99116.91;;;-2.12;53.70
75039;BME280;63609;49.992;14.512;2023-02-28T05:08:59;99099.69;;;-2.19;53.32
75039;BME280;63609;49.992;14.512;2023-02-28T05:11:28;99122.66;;;-2.01;54.03
75039;BME280;63609;49.992;14.512;2023-02-28T05:13:57;99120.06;;;-2.03;52.92
75039;BME280;63609;49.992;14.512;2023-02-28T05:16:24;99118.69;;;-2.14;52.75
75039;BME280;63609;49.992;14.512;2023-02-28T05:18:53;99122.41;;;-2.21;53.32
75039;BME280;63609;49.992;14.512;2023-02-28T05:21:24;99119.06;;;-1.98;52.90
75039;BME280;63609;49.992;14.512;2023-02-28T05:23:54;99122.03;;;-2.09;52.60
75039;BME280;63609;49.992;14.512;2023-02-28T05:26:21;99119.94;;;-1.98;52.65
75039;BME280;63609;49.992;14.512;2023-02-28T05:28:50;99130.38;;;-2.26;53.44
75039;BME280;63609;49.992;14.512;2023-02-28T05:31:16;99128.41;;;-2.18;53.24
75039;BME280;63609;49.992;14.512;2023-02-28T05:33:43;99134.50;;;-2.17;52.88
75039;BME280;63609;49.992;14.512;2023-02-28T05:36:10;99132.78;;;-2.48;54.13
75039;BME280;63609;49.992;14.512;2023-02-28T05:38:39;99139.56;;;-2.42;53.71
75039;BME280;63609;49.992;14.512;2023-02-28T05:41:11;99142.81;;;-2.34;53.81
75039;BME280;63609;49.992;14.512;2023-02-28T05:43:38;99139.41;;;-2.36;53.14
75039;BME280;63609;49.992;14.512;2023-02-28T05:46:10;99152.03;;;-2.50;53.77
75039;BME280;63609;49.992;14.512;2023-02-28T05:48:39;99147.97;;;-2.31;53.23
75039;BME280;63609;49.992;14.512;2023-02-28T05:51:07;99149.03;;;-2.38;52.66
75039;BME280;63609;49.992;14.512;2023-02-28T05:53:35;99154.00;;;-2.29;53.16
75039;BME280;63609;49.992;14.512;2023-02-28T05:56:04;99151.63;;;-2.37;53.01
75039;BME280;63609;49.992;14.512;2023-02-28T05:58:33;99148.28;;;-2.42;52.71
75039;BME280;63609;49.992;14.512;2023-02-28T06:01:22;99151.34;;;-2.27;52.90
75039;BME280;63609;49.992;14.512;2023-02-28T06:03:51;99159.53;;;-2.40;53.09
75039;BME280;63609;49.992;14.512;2023-02-28T06:06:24;99162.16;;;-2.40;52.96
75039;BME280;63609;49.992;14.512;2023-02-28T06:08:51;99167.22;;;-2.34;52.99
75039;BME280;63609;49.992;14.512;2023-02-28T06:11:19;99168.13;;;-2.35;53.49
75039;BME280;63609;49.992;14.512;2023-02-28T06:13:47;99168.94;;;-2.33;52.90
75039;BME280;63609;49.992;14.512;2023-02-28T06:16:15;99168.44;;;-2.45;53.45
75039;BME280;63609;49.992;14.512;2023-02-28T06:18:42;99169.69;;;-2.29;52.94
75039;BME280;63609;49.992;14.512;2023-02-28T06:21:09;99176.81;;;-2.34;52.46
75039;BME280;63609;49.992;14.512;2023-02-28T06:23:36;99165.91;;;-2.48;52.97
75039;BME280;63609;49.992;14.512;2023-02-28T06:26:04;99178.06;;;-2.47;53.35
75039;BME280;63609;49.992;14.512;2023-02-28T06:28:39;99179.78;;;-2.46;53.77
75039;BME280;63609;49.992;14.512;2023-02-28T06:31:11;99183.44;;;-2.52;54.08
75039;BME280;63609;49.992;14.512;2023-02-28T06:33:39;99190.28;;;-2.48;54.10
75039;BME280;63609;49.992;14.512;2023-02-28T06:36:09;99182.69;;;-2.57;53.63
75039;BME280;63609;49.992;14.512;2023-02-28T06:38:36;99193.22;;;-2.60;54.93
75039;BME280;63609;49.992;14.512;2023-02-28T06:41:06;99195.03;;;-2.62;54.66
75039;BME280;63609;49.992;14.512;2023-02-28T06:43:37;99202.50;;;-2.17;53.52
75039;BME280;63609;49.992;14.512;2023-02-28T06:46:07;99210.25;;;-2.14;53.44
75039;BME280;63609;49.992;14.512;2023-02-28T06:48:39;99204.00;;;-2.09;53.31
75039;BME280;63609;49.992;14.512;2023-02-28T06:51:13;99201.84;;;-2.25;53.66
75039;BME280;63609;49.992;14.512;2023-02-28T06:53:41;99199.09;;;-1.90;53.23
75039;BME280;63609;49.992;14.512;2023-02-28T06:56:11;99196.63;;;-1.96;53.37
75039;BME280;63609;49.992;14.512;2023-02-28T06:58:39;99210.13;;;-2.10;53.63
75039;BME280;63609;49.992;14.512;2023-02-28T07:01:10;99191.00;;;-1.82;53.11
75039;BME280;63609;49.992;14.512;2023-02-28T07:03:40;99203.66;;;-1.69;52.46
75039;BME280;63609;49.992;14.512;2023-02-28T07:06:07;99190.81;;;-1.76;52.70
75039;BME280;63609;49.992;14.512;2023-02-28T07:08:35;99200.06;;;-1.66;52.53
75039;BME280;63609;49.992;14.512;2023-02-28T07:11:06;99202.56;;;-1.89;53.28
75039;BME280;63609;49.992;14.512;2023-02-28T07:13:36;99199.63;;;-2.08;53.09
75039;BME280;63609;49.992;14.512;2023-02-28T07:16:07;99206.75;;;-2.13;53.18
75039;BME280;63609;49.992;14.512;2023-02-28T07:18:38;99207.22;;;-1.43;51.81
75039;BME280;63609;49.992;14.512;2023-02-28T07:21:07;99203.47;;;-1.92;52.17
75039;BME280;63609;49.992;14.512;2023-02-28T07:23:37;99208.63;;;-1.61;51.32
75039;BME280;63609;49.992;14.512;2023-02-28T07:26:14;99212.75;;;-1.52;51.10
75039;BME280;63609;49.992;14.512;2023-02-28T07:28:46;99214.25;;;-1.17;50.79
75039;BME280;63609;49.992;14.512;2023-02-28T07:31:15;99203.88;;;-1.20;49.96
75039;BME280;63609;49.992;14.512;2023-02-28T07:33:43;99210.09;;;-0.98;49.85
75039;BME280;63609;49.992;14.512;2023-02-28T07:36:15;99215.06;;;-1.15;49.23
75039;BME280;63609;49.992;14.512;2023-02-28T07:38:47;99220.16;;;-1.11;49.64
75039;BME280;63609;49.992;14.512;2023-02-28T07:41:19;99225.34;;;-1.37;49.92
75039;BME280;63609;49.992;14.512;2023-02-28T07:43:49;99221.38;;;-0.96;49.71
75039;BME280;63609;49.992;14.512;2023-02-28T07:46:17;99224.38;;;-1.07;49.89
75039;BME280;63609;49.992;14.512;2023-02-28T07:48:47;99226.94;;;-1.05;49.04
75039;BME280;63609;49.992;14.512;2023-02-28T07:51:13;99231.97;;;-0.48;48.08
75039;BME280;63609;49.992;14.512;2023-02-28T07:53:41;99235.81;;;-0.83;48.17
75039;BME280;63609;49.992;14.512;2023-02-28T07:56:07;99232.50;;;-1.14;48.65
75039;BME280;63609;49.992;14.512;2023-02-28T07:58:35;99233.09;;;-0.80;48.30
75039;BME280;63609;49.992;14.512;2023-02-28T08:01:07;99235.28;;;-0.67;48.43
75039;BME280;63609;49.992;14.512;2023-02-28T08:03:35;99224.88;;;-0.95;48.67
75039;BME280;63609;49.992;14.512;2023-02-28T08:06:04;99233.31;;;-0.61;47.74
75039;BME280;63609;49.992;14.512;2023-02-28T08:08:31;99231.00;;;-0.70;47.11
75039;BME280;63609;49.992;14.512;2023-02-28T08:11:02;99238.88;;;-0.45;47.65
75039;BME280;63609;49.992;14.512;2023-02-28T08:13:30;99227.94;;;-0.33;46.54
75039;BME280;63609;49.992;14.512;2023-02-28T08:15:57;99232.03;;;-0.49;46.79
75039;BME280;63609;49.992;14.512;2023-02-28T08:18:24;99220.22;;;-0.13;47.16
75039;BME280;63609;49.992;14.512;2023-02-28T08:20:51;99225.53;;;-0.14;46.66
75039;BME280;63609;49.992;14.512;2023-02-28T08:23:19;99222.16;;;-0.18;46.22
75039;BME280;63609;49.992;14.512;2023-02-28T08:25:53;99234.59;;;-0.48;47.55
75039;BME280;63609;49.992;14.512;2023-02-28T08:28:22;99233.34;;;-0.37;47.18
75039;BME280;63609;49.992;14.512;2023-02-28T08:30:52;99229.28;;;-0.21;45.92
75039;BME280;63609;49.992;14.512;2023-02-28T08:33:22;99234.34;;;0.08;45.60
75039;BME280;63609;49.992;14.512;2023-02-28T08:35:53;99221.41;;;-0.21;45.93
75039;BME280;63609;49.992;14.512;2023-02-28T08:38:22;99225.19;;;0.18;46.48
75039;BME280;63609;49.992;14.512;2023-02-28T08:40:49;99228.22;;;0.08;46.69
75039;BME280;63609;49.992;14.512;2023-02-28T08:43:17;99232.03;;;0.23;45.31
75039;BME280;63609;49.992;14.512;2023-02-28T08:45:43;99233.97;;;0.17;44.93
75039;BME280;63609;49.992;14.512;2023-02-28T08:48:16;99223.47;;;0.41;44.81
75039;BME280;63609;49.992;14.512;2023-02-28T08:50:55;99227.41;;;0.29;45.57
75039;BME280;63609;49.992;14.512;2023-02-28T08:53:38;99225.25;;;0.17;45.30
75039;BME280;63609;49.992;14.512;2023-02-28T08:56:26;99228.22;;;0.53;44.90
75039;BME280;63609;49.992;14.512;2023-02-28T08:58:57;99234.72;;;0.44;44.61
75039;BME280;63609;49.992;14.512;2023-02-28T09:01:52;99226.34;;;0.57;43.67
75039;BME280;63609;49.992;14.512;2023-02-28T09:04:20;99234.81;;;0.63;43.72
75039;BME280;63609;49.992;14.512;2023-02-28T09:07:15;99232.00;;;0.68;43.88
75039;BME280;63609;49.992;14.512;2023-02-28T09:09:46;99218.88;;;0.68;42.79
75039;BME280;63609;49.992;14.512;2023-02-28T09:12:24;99216.88;;;0.53;42.34
75039;BME280;63609;49.992;14.512;2023-02-28T09:14:56;99225.72;;;0.94;41.87
75039;BME280;63609;49.992;14.512;2023-02-28T09:17:23;99224.38;;;1.05;42.14
75039;BME280;63609;49.992;14.512;2023-02-28T09:19:56;99223.59;;;1.03;41.82
75039;BME280;63609;49.992;14.512;2023-02-28T09:22:24;99226.78;;;1.52;40.99
75039;BME280;63609;49.992;14.512;2023-02-28T09:24:51;99217.94;;;0.91;41.21
75039;BME280;63609;49.992;14.512;2023-02-28T09:27:17;99219.47;;;0.96;41.29
75039;BME280;63609;49.992;14.512;2023-02-28T09:29:44;99223.78;;;1.41;40.17
75039;BME280;63609;49.992;14.512;2023-02-28T09:32:11;99228.84;;;1.03;40.23
75039;BME280;63609;49.992;14.512;2023-02-28T09:34:39;99220.03;;;1.47;39.73
75039;BME280;63609;49.992;14.512;2023-02-28T09:37:06;99223.09;;;1.36;40.50
75039;BME280;63609;49.992;14.512;2023-02-28T09:39:33;99226.03;;;1.28;40.39
75039;BME280;63609;49.992;14.512;2023-02-28T09:42:00;99223.53;;;1.66;40.83
75039;BME280;63609;49.992;14.512;2023-02-28T09:44:32;99220.66;;;2.11;39.80
75039;BME280;63609;49.992;14.512;2023-02-28T09:47:33;99233.72;;;1.94;39.49
75039;BME280;63609;49.992;14.512;2023-02-28T09:52:53;99215.31;;;2.13;39.08
75039;BME280;63609;49.992;14.512;2023-02-28T09:57:50;99224.44;;;2.05;39.23
75039;BME280;63609;49.992;14.512;2023-02-28T10:00:42;99219.09;;;2.45;39.06
75039;BME280;63609;49.992;14.512;2023-02-28T10:03:30;99218.22;;;2.63;37.51
75039;BME280;63609;49.992;14.512;2023-02-28T10:08:58;99226.25;;;2.60;37.74
75039;BME280;63609;49.992;14.512;2023-02-28T10:11:32;99221.69;;;2.82;37.92
75039;BME280;63609;49.992;14.512;2023-02-28T10:14:03;99225.28;;;2.98;38.15
75039;BME280;63609;49.992;14.512;2023-02-28T10:22:58;99223.22;;;2.86;37.42
75039;BME280;63609;49.992;14.512;2023-02-28T10:25:36;99227.72;;;2.84;38.42
75039;BME280;63609;49.992;14.512;2023-02-28T10:28:14;99237.16;;;3.24;38.04
75039;BME280;63609;49.992;14.512;2023-02-28T10:30:47;99227.94;;;2.98;38.07
75039;BME280;63609;49.992;14.512;2023-02-28T10:33:24;99225.63;;;2.74;37.60
75039;BME280;63609;49.992;14.512;2023-02-28T10:35:52;99216.22;;;3.21;37.44
75039;BME280;63609;49.992;14.512;2023-02-28T10:38:31;99218.03;;;3.38;36.79
75039;BME280;63609;49.992;14.512;2023-02-28T10:41:30;99226.47;;;4.12;35.50
75039;BME280;63609;49.992;14.512;2023-02-28T10:44:20;99213.31;;;3.78;36.68
75039;BME280;63609;49.992;14.512;2023-02-28T10:46:50;99220.38;;;3.77;36.51
75039;BME280;63609;49.992;14.512;2023-02-28T10:49:21;99208.94;;;3.94;36.61
75039;BME280;63609;49.992;14.512;2023-02-28T10:51:58;99207.78;;;3.32;37.96
75039;BME280;63609;49.992;14.512;2023-02-28T10:54:33;99206.66;;;3.71;36.35
75039;BME280;63609;49.992;14.512;2023-02-28T10:57:28;99212.94;;;3.85;36.84
75039;BME280;63609;49.992;14.512;2023-02-28T11:00:14;99203.34;;;3.83;36.24
75039;BME280;63609;49.992;14.512;2023-02-28T11:02:45;99203.97;;;4.21;35.54
75039;BME280;63609;49.992;14.512;2023-02-28T11:05:32;99208.78;;;4.30;35.62
75039;BME280;63609;49.992;14.512;2023-02-28T11:08:14;99207.38;;;4.23;35.26
75039;BME280;63609;49.992;14.512;2023-02-28T11:10:54;99206.06;;;4.32;36.29
75039;BME280;63609;49.992;14.512;2023-02-28T11:13:36;99201.53;;;4.49;34.63
75039;BME280;63609;49.992;14.512;2023-02-28T11:16:10;99203.66;;;4.74;34.89
75039;BME280;63609;49.992;14.512;2023-02-28T11:18:47;99188.56;;;4.45;35.26
75039;BME280;63609;49.992;14.512;2023-02-28T11:21:19;99195.88;;;4.08;34.93
75039;BME280;63609;49.992;14.512;2023-02-28T11:23:47;99195.97;;;4.54;34.20
75039;BME280;63609;49.992;14.512;2023-02-28T11:26:18;99187.63;;;4.30;35.43
75039;BME280;63609;49.992;14.512;2023-02-28T11:29:10;99190.41;;;4.27;35.70
75039;BME280;63609;49.992;14.512;2023-02-28T11:31:37;99193.59;;;4.49;35.42
75039;BME280;63609;49.992;14.512;2023-02-28T11:34:23;99182.50;;;4.74;33.78
75039;BME280;63609;49.992;14.512;2023-02-28T11:36:53;99192.72;;;4.96;34.14
75039;BME280;63609;49.992;14.512;2023-02-28T11:39:24;99186.03;;;5.05;33.60
75039;BME280;63609;49.992;14.512;2023-02-28T11:42:04;99189.59;;;5.34;33.97
75039;BME280;63609;49.992;14.512;2023-02-28T11:44:39;99187.94;;;5.17;33.38
75039;BME280;63609;49.992;14.512;2023-02-28T11:53:00;99183.69;;;4.69;34.27
75039;BME280;63609;49.992;14.512;2023-02-28T11:55:38;99173.75;;;5.18;33.09
75039;BME280;63609;49.992;14.512;2023-02-28T12:01:14;99170.91;;;5.07;33.23
75039;BME280;63609;49.992;14.512;2023-02-28T12:04:19;99168.53;;;4.86;33.42
75039;BME280;63609;49.992;14.512;2023-02-28T12:06:51;99172.28;;;4.98;33.49
75039;BME280;63609;49.992;14.512;2023-02-28T12:12:07;99172.03;;;5.03;33.67
75039;BME280;63609;49.992;14.512;2023-02-28T12:14:52;99165.13;;;5.00;33.51
75039;BME280;63609;49.992;14.512;2023-02-28T12:25:50;99155.47;;;5.58;32.27
75039;BME280;63609;49.992;14.512;2023-02-28T12:28:25;99151.41;;;5.52;31.62
75039;BME280;63609;49.992;14.512;2023-02-28T12:31:08;99144.34;;;5.67;32.77
75039;BME280;63609;49.992;14.512;2023-02-28T12:33:40;99138.31;;;6.07;32.37
75039;BME280;63609;49.992;14.512;2023-02-28T12:36:13;99140.19;;;5.63;32.20
75039;BME280;63609;49.992;14.512;2023-02-28T12:38:48;99139.34;;;5.76;31.97
75039;BME280;63609;49.992;14.512;2023-02-28T12:41:22;99139.91;;;5.67;31.96
75039;BME280;63609;49.992;14.512;2023-02-28T12:44:19;99139.88;;;5.53;32.94
75039;BME280;63609;49.992;14.512;2023-02-28T12:46:51;99139.53;;;5.59;32.84
75039;BME280;63609;49.992;14.512;2023-02-28T12:49:29;99136.94;;;5.29;32.52
75039;BME280;63609;49.992;14.512;2023-02-28T12:52:00;99137.22;;;5.53;32.60
75039;BME280;63609;49.992;14.512;2023-02-28T12:57:25;99141.56;;;5.40;32.26
75039;BME280;63609;49.992;14.512;2023-02-28T13:00:22;99149.63;;;5.53;31.91
75039;BME280;63609;49.992;14.512;2023-02-28T13:11:43;99133.91;;;5.49;33.48
75039;BME280;63609;49.992;14.512;2023-02-28T13:14:37;99125.81;;;5.67;32.92
75039;BME280;63609;49.992;14.512;2023-02-28T13:19:58;99122.69;;;6.03;30.95
75039;BME280;63609;49.992;14.512;2023-02-28T13:24:57;99127.19;;;6.15;32.39
75039;BME280;63609;49.992;14.512;2023-02-28T13:27:40;99136.94;;;6.29;32.24
75039;BME280;63609;49.992;14.512;2023-02-28T13:33:33;99140.72;;;5.39;32.37
75039;BME280;63609;49.992;14.512;2023-02-28T13:38:51;99128.53;;;5.51;31.88
75039;BME280;63609;49.992;14.512;2023-02-28T13:44:11;99134.31;;;5.13;32.32
75039;BME280;63609;49.992;14.512;2023-02-28T14:06:29;99131.94;;;5.67;31.79
75039;BME280;63609;49.992;14.512;2023-02-28T14:11:39;99121.44;;;6.08;31.29
75039;BME280;63609;49.992;14.512;2023-02-28T14:17:03;99114.44;;;5.65;31.39
75039;BME280;63609;49.992;14.512;2023-02-28T14:19:33;99107.25;;;5.67;31.61
75039;BME280;63609;49.992;14.512;2023-02-28T14:27:37;99099.97;;;5.42;32.61
75039;BME280;63609;49.992;14.512;2023-02-28T14:36:12;99103.94;;;5.63;32.16
75039;BME280;63609;49.992;14.512;2023-02-28T14:38:51;99092.88;;;5.99;31.41
75039;BME280;63609;49.992;14.512;2023-02-28T14:41:36;99104.03;;;6.46;30.99
75039;BME280;63609;49.992;14.512;2023-02-28T14:44:18;99102.06;;;5.94;31.38
75039;BME280;63609;49.992;14.512;2023-02-28T14:46:57;99101.78;;;5.98;32.12
75039;BME280;63609;49.992;14.512;2023-02-28T14:49:34;99101.47;;;6.03;31.09
75039;BME280;63609;49.992;14.512;2023-02-28T14:52:20;99100.38;;;5.78;31.97
75039;BME280;63609;49.992;14.512;2023-02-28T14:54:54;99095.03;;;6.07;31.50
75039;BME280;63609;49.992;14.512;2023-02-28T14:57:50;99083.38;;;6.09;31.11
75039;BME280;63609;49.992;14.512;2023-02-28T15:00:46;99096.03;;;5.92;31.82
75039;BME280;63609;49.992;14.512;2023-02-28T15:03:29;99088.78;;;5.51;32.96
75039;BME280;63609;49.992;14.512;2023-02-28T15:06:05;99094.50;;;5.59;32.75
75039;BME280;63609;49.992;14.512;2023-02-28T15:08:34;99093.63;;;6.01;32.09
75039;BME280;63609;49.992;14.512;2023-02-28T15:11:13;99095.50;;;5.57;33.15
75039;BME280;63609;49.992;14.512;2023-02-28T15:18:52;99094.53;;;6.15;31.64
75039;BME280;63609;49.992;14.512;2023-02-28T15:21:32;99095.63;;;5.84;31.62
75039;BME280;63609;49.992;14.512;2023-02-28T15:24:17;99090.88;;;5.89;32.15
75039;BME280;63609;49.992;14.512;2023-02-28T15:26:57;99095.06;;;5.64;32.51
75039;BME280;63609;49.992;14.512;2023-02-28T15:29:29;99095.81;;;5.38;32.66
75039;BME280;63609;49.992;14.512;2023-02-28T15:32:02;99098.31;;;5.25;32.37
75039;BME280;63609;49.992;14.512;2023-02-28T15:34:42;99093.63;;;4.86;33.01
75039;BME280;63609;49.992;14.512;2023-02-28T15:40:32;99094.66;;;5.42;32.68
75039;BME280;63609;49.992;14.512;2023-02-28T15:43:06;99088.38;;;5.00;32.86